sensor_id;sensor_type;location;lat;lon;timestamp;temperature;humidity
14614;DHT22;7393;51.446;6.800;2023-05-07T00:02:16;17.20;1.00
14614;DHT22;7393;51.446;6.800;2023-05-07T00:04:42;17.20;99.90
14614;DHT22;7393;51.446;6.800;2023-05-07T00:07:10;17.10;99.90
14614;DHT22;7393;51.446;6.800;2023-05-07T00:09:37;17.20;99.90
14614;DHT22;7393;51.446;6.800;2023-05-07T00:12:04;17.10;1.00
14614;DHT22;7393;51.446;6.800;2023-05-07T00:14:31;17.20;1.00
14614;DHT22;7393;51.446;6.800;2023-05-07T00:16:58;17.20;1.00
14614;DHT22;7393;51.446;6.800;2023-05-07T00:19:25;17.10;1.00
14614;DHT22;7393;51.446;6.800;2023-05-07T00:21:52;17.10;11.80
14614;DHT22;7393;51.446;6.800;2023-05-07T00:24:21;17.10;99.90
14614;DHT22;7393;51.446;6.800;2023-05-07T00:26:48;17.10;99.90
14614;DHT22;7393;51.446;6.800;2023-05-07T00:29:15;17.10;99.90
14614;DHT22;7393;51.446;6.800;2023-05-07T00:31:41;17.00;1.00
14614;DHT22;7393;51.446;6.800;2023-05-07T00:34:08;17.00;1.00
14614;DHT22;7393;51.446;6.800;2023-05-07T00:36:35;17.00;1.00
14614;DHT22;7393;51.446;6.800;2023-05-07T00:39:02;17.00;1.00
14614;DHT22;7393;51.446;6.800;2023-05-07T00:41:30;17.00;1.00
14614;DHT22;7393;51.446;6.800;2023-05-07T00:43:57;17.00;1.00
14614;DHT22;7393;51.446;6.800;2023-05-07T00:46:24;17.00;1.00
14614;DHT22;7393;51.446;6.800;2023-05-07T00:48:51;17.00;1.00
14614;DHT22;7393;51.446;6.800;2023-05-07T00:51:18;16.90;1.00
14614;DHT22;7393;51.446;6.800;2023-05-07T00:53:46;16.90;1.00
14614;DHT22;7393;51.446;6.800;2023-05-07T00:56:13;16.90;1.00
14614;DHT22;7393;51.446;6.800;2023-05-07T00:58:41;16.80;19.10
14614;DHT22;7393;51.446;6.800;2023-05-07T01:01:08;16.80;99.90
14614;DHT22;7393;51.446;6.800;2023-05-07T01:03:35;16.80;99.90
14614;DHT22;7393;51.446;6.800;2023-05-07T01:06:02;16.80;1.00
14614;DHT22;7393;51.446;6.800;2023-05-07T01:08:30;16.70;1.00
14614;DHT22;7393;51.446;6.800;2023-05-07T01:10:57;16.70;1.00
14614;DHT22;7393;51.446;6.800;2023-05-07T01:13:25;16.70;40.20
14614;DHT22;7393;51.446;6.800;2023-05-07T01:15:53;16.70;99.90
14614;DHT22;7393;51.446;6.800;2023-05-07T01:18:20;16.60;99.90
14614;DHT22;7393;51.446;6.800;2023-05-07T01:20:47;16.60;1.00
14614;DHT22;7393;51.446;6.800;2023-05-07T01:23:16;16.60;1.00
14614;DHT22;7393;51.446;6.800;2023-05-07T01:25:51;16.50;99.90
14614;DHT22;7393;51.446;6.800;2023-05-07T01:28:17;16.50;99.90
14614;DHT22;7393;51.446;6.800;2023-05-07T01:30:48;16.50;99.90
14614;DHT22;7393;51.446;6.800;2023-05-07T01:33:19;16.50;1.00
14614;DHT22;7393;51.446;6.800;2023-05-07T01:35:49;16.50;1.00
14614;DHT22;7393;51.446;6.800;2023-05-07T01:38:19;16.50;38.00
14614;DHT22;7393;51.446;6.800;2023-05-07T01:40:47;16.50;99.90
14614;DHT22;7393;51.446;6.800;2023-05-07T01:43:15;16.50;99.90
14614;DHT22;7393;51.446;6.800;2023-05-07T01:45:42;16.50;1.00
14614;DHT22;7393;51.446;6.800;2023-05-07T01:48:10;16.40;1.00
14614;DHT22;7393;51.446;6.800;2023-05-07T01:50:37;16.40;1.00
14614;DHT22;7393;51.446;6.800;2023-05-07T01:53:04;16.40;26.20
14614;DHT22;7393;51.446;6.800;2023-05-07T01:55:32;16.40;99.90
14614;DHT22;7393;51.446;6.800;2023-05-07T01:57:59;16.40;99.90
14614;DHT22;7393;51.446;6.800;2023-05-07T02:00:26;16.40;1.00
14614;DHT22;7393;51.446;6.800;2023-05-07T02:02:53;16.40;1.00
14614;DHT22;7393;51.446;6.800;2023-05-07T02:05:20;16.40;1.00
14614;DHT22;7393;51.446;6.800;2023-05-07T02:07:47;16.30;1.00
14614;DHT22;7393;51.446;6.800;2023-05-07T02:10:14;16.30;57.10
14614;DHT22;7393;51.446;6.800;2023-05-07T02:12:42;16.30;99.90
14614;DHT22;7393;51.446;6.800;2023-05-07T02:15:09;16.30;99.90
14614;DHT22;7393;51.446;6.800;2023-05-07T02:17:39;16.30;99.90
14614;DHT22;7393;51.446;6.800;2023-05-07T02:20:24;16.30;99.90
14614;DHT22;7393;51.446;6.800;2023-05-07T02:22:51;16.30;1.00
14614;DHT22;7393;51.446;6.800;2023-05-07T02:25:17;16.30;1.00
14614;DHT22;7393;51.446;6.800;2023-05-07T02:27:46;16.20;1.00
14614;DHT22;7393;51.446;6.800;2023-05-07T02:30:13;16.20;1.00
14614;DHT22;7393;51.446;6.800;2023-05-07T02:32:40;16.20;1.00
14614;DHT22;7393;51.446;6.800;2023-05-07T02:35:07;16.20;1.00
14614;DHT22;7393;51.446;6.800;2023-05-07T02:37:34;16.20;1.00
14614;DHT22;7393;51.446;6.800;2023-05-07T02:40:01;16.20;1.00
14614;DHT22;7393;51.446;6.800;2023-05-07T02:42:29;16.20;1.00
14614;DHT22;7393;51.446;6.800;2023-05-07T02:44:58;16.20;32.20
14614;DHT22;7393;51.446;6.800;2023-05-07T02:47:25;16.20;1.00
14614;DHT22;7393;51.446;6.800;2023-05-07T02:49:52;16.20;46.90
14614;DHT22;7393;51.446;6.800;2023-05-07T02:52:19;16.10;99.60
14614;DHT22;7393;51.446;6.800;2023-05-07T02:54:46;16.10;99.90
14614;DHT22;7393;51.446;6.800;2023-05-07T02:57:12;16.10;99.90
14614;DHT22;7393;51.446;6.800;2023-05-07T02:59:41;16.10;99.90
14614;DHT22;7393;51.446;6.800;2023-05-07T03:02:09;16.10;99.90
14614;DHT22;7393;51.446;6.800;2023-05-07T03:04:36;16.10;99.90
14614;DHT22;7393;51.446;6.800;2023-05-07T03:07:03;16.10;99.90
14614;DHT22;7393;51.446;6.800;2023-05-07T03:09:30;16.00;1.00
14614;DHT22;7393;51.446;6.800;2023-05-07T03:11:57;16.00;1.00
14614;DHT22;7393;51.446;6.800;2023-05-07T03:14:23;16.00;1.00
14614;DHT22;7393;51.446;6.800;2023-05-07T03:16:50;16.00;1.00
14614;DHT22;7393;51.446;6.800;2023-05-07T03:19:19;16.00;1.00
14614;DHT22;7393;51.446;6.800;2023-05-07T03:21:45;16.00;1.00
14614;DHT22;7393;51.446;6.800;2023-05-07T03:24:12;15.90;1.00
14614;DHT22;7393;51.446;6.800;2023-05-07T03:26:39;15.90;99.90
14614;DHT22;7393;51.446;6.800;2023-05-07T03:29:06;15.90;99.90
14614;DHT22;7393;51.446;6.800;2023-05-07T03:31:33;15.90;99.90
14614;DHT22;7393;51.446;6.800;2023-05-07T03:33:59;15.90;99.90
14614;DHT22;7393;51.446;6.800;2023-05-07T03:36:27;15.90;99.90
14614;DHT22;7393;51.446;6.800;2023-05-07T03:38:54;15.90;99.90
14614;DHT22;7393;51.446;6.800;2023-05-07T03:41:21;15.80;1.00
14614;DHT22;7393;51.446;6.800;2023-05-07T03:43:48;15.80;1.00
14614;DHT22;7393;51.446;6.800;2023-05-07T03:46:15;15.80;1.00
14614;DHT22;7393;51.446;6.800;2023-05-07T03:48:41;15.80;1.00
14614;DHT22;7393;51.446;6.800;2023-05-07T03:51:08;15.80;1.00
14614;DHT22;7393;51.446;6.800;2023-05-07T03:53:36;15.80;1.00
14614;DHT22;7393;51.446;6.800;2023-05-07T03:56:03;15.70;1.00
14614;DHT22;7393;51.446;6.800;2023-05-07T03:58:30;15.80;1.00
14614;DHT22;7393;51.446;6.800;2023-05-07T04:00:57;15.70;1.00
14614;DHT22;7393;51.446;6.800;2023-05-07T04:03:24;15.70;1.00
14614;DHT22;7393;51.446;6.800;2023-05-07T04:05:51;15.70;1.00
14614;DHT22;7393;51.446;6.800;2023-05-07T04:08:17;15.70;1.00
14614;DHT22;7393;51.446;6.800;2023-05-07T04:10:46;15.70;1.00
14614;DHT22;7393;51.446;6.800;2023-05-07T04:13:12;15.70;1.00
14614;DHT22;7393;51.446;6.800;2023-05-07T04:15:39;15.70;1.00
14614;DHT22;7393;51.446;6.800;2023-05-07T04:18:06;15.70;1.00
14614;DHT22;7393;51.446;6.800;2023-05-07T04:20:34;15.70;3.00
14614;DHT22;7393;51.446;6.800;2023-05-07T04:23:02;15.70;33.40
14614;DHT22;7393;51.446;6.800;2023-05-07T04:25:29;15.70;97.40
14614;DHT22;7393;51.446;6.800;2023-05-07T04:27:57;15.70;99.90
14614;DHT22;7393;51.446;6.800;2023-05-07T04:30:24;15.70;99.90
14614;DHT22;7393;51.446;6.800;2023-05-07T04:32:51;15.60;99.90
14614;DHT22;7393;51.446;6.800;2023-05-07T04:35:18;15.60;99.90
14614;DHT22;7393;51.446;6.800;2023-05-07T04:37:45;15.60;99.90
14614;DHT22;7393;51.446;6.800;2023-05-07T04:40:12;15.60;99.90
14614;DHT22;7393;51.446;6.800;2023-05-07T04:42:39;15.60;99.90
14614;DHT22;7393;51.446;6.800;2023-05-07T04:45:08;15.60;99.90
14614;DHT22;7393;51.446;6.800;2023-05-07T04:47:35;15.60;99.90
14614;DHT22;7393;51.446;6.800;2023-05-07T04:50:02;15.60;99.90
14614;DHT22;7393;51.446;6.800;2023-05-07T04:52:29;15.60;99.90
14614;DHT22;7393;51.446;6.800;2023-05-07T04:54:58;15.60;99.90
14614;DHT22;7393;51.446;6.800;2023-05-07T04:57:25;15.70;99.90
14614;DHT22;7393;51.446;6.800;2023-05-07T04:59:52;15.70;99.90
14614;DHT22;7393;51.446;6.800;2023-05-07T05:02:20;15.70;99.90
14614;DHT22;7393;51.446;6.800;2023-05-07T05:04:47;15.70;99.90
14614;DHT22;7393;51.446;6.800;2023-05-07T05:07:14;15.70;99.90
14614;DHT22;7393;51.446;6.800;2023-05-07T05:09:40;15.70;99.90
14614;DHT22;7393;51.446;6.800;2023-05-07T05:12:07;15.70;99.90
14614;DHT22;7393;51.446;6.800;2023-05-07T05:14:34;15.70;99.90
14614;DHT22;7393;51.446;6.800;2023-05-07T05:17:01;15.70;99.90
14614;DHT22;7393;51.446;6.800;2023-05-07T05:19:29;15.70;99.90
14614;DHT22;7393;51.446;6.800;2023-05-07T05:21:56;15.80;99.90
14614;DHT22;7393;51.446;6.800;2023-05-07T05:24:22;15.80;99.90
14614;DHT22;7393;51.446;6.800;2023-05-07T05:26:49;15.80;99.90
14614;DHT22;7393;51.446;6.800;2023-05-07T05:29:16;15.90;99.90
14614;DHT22;7393;51.446;6.800;2023-05-07T05:31:42;15.90;99.90
14614;DHT22;7393;51.446;6.800;2023-05-07T05:34:09;15.90;99.90
14614;DHT22;7393;51.446;6.800;2023-05-07T05:36:38;15.90;99.90
14614;DHT22;7393;51.446;6.800;2023-05-07T05:39:04;16.00;99.90
14614;DHT22;7393;51.446;6.800;2023-05-07T05:41:31;16.00;99.90
14614;DHT22;7393;51.446;6.800;2023-05-07T05:43:58;16.00;99.90
14614;DHT22;7393;51.446;6.800;2023-05-07T05:46:25;16.00;99.90
14614;DHT22;7393;51.446;6.800;2023-05-07T05:48:52;16.00;99.90
14614;DHT22;7393;51.446;6.800;2023-05-07T05:51:18;16.00;99.90
14614;DHT22;7393;51.446;6.800;2023-05-07T05:53:47;16.10;99.90
14614;DHT22;7393;51.446;6.800;2023-05-07T05:56:14;16.10;99.90
14614;DHT22;7393;51.446;6.800;2023-05-07T05:58:41;16.10;99.90
14614;DHT22;7393;51.446;6.800;2023-05-07T06:01:08;16.10;99.90
14614;DHT22;7393;51.446;6.800;2023-05-07T06:03:35;16.10;99.90
14614;DHT22;7393;51.446;6.800;2023-05-07T06:06:01;16.10;99.90
14614;DHT22;7393;51.446;6.800;2023-05-07T06:08:29;16.20;99.90
14614;DHT22;7393;51.446;6.800;2023-05-07T06:10:58;16.20;99.90
14614;DHT22;7393;51.446;6.800;2023-05-07T06:13:25;16.30;99.90
14614;DHT22;7393;51.446;6.800;2023-05-07T06:15:52;16.40;52.00
14614;DHT22;7393;51.446;6.800;2023-05-07T06:18:19;16.40;1.00
14614;DHT22;7393;51.446;6.800;2023-05-07T06:20:46;16.40;1.00
14614;DHT22;7393;51.446;6.800;2023-05-07T06:23:13;16.50;1.00
14614;DHT22;7393;51.446;6.800;2023-05-07T06:25:40;16.50;1.00
14614;DHT22;7393;51.446;6.800;2023-05-07T06:28:08;16.60;1.00
14614;DHT22;7393;51.446;6.800;2023-05-07T06:30:36;16.70;1.00
14614;DHT22;7393;51.446;6.800;2023-05-07T06:33:03;16.70;1.00
14614;DHT22;7393;51.446;6.800;2023-05-07T06:35:30;16.70;99.90
14614;DHT22;7393;51.446;6.800;2023-05-07T06:37:56;16.70;99.90
14614;DHT22;7393;51.446;6.800;2023-05-07T06:40:23;16.80;1.00
14614;DHT22;7393;51.446;6.800;2023-05-07T06:42:50;16.80;99.90
14614;DHT22;7393;51.446;6.800;2023-05-07T06:45:19;16.80;9.00
14614;DHT22;7393;51.446;6.800;2023-05-07T06:47:46;16.90;99.90
14614;DHT22;7393;51.446;6.800;2023-05-07T06:50:13;16.90;99.90
14614;DHT22;7393;51.446;6.800;2023-05-07T06:52:41;16.90;99.90
14614;DHT22;7393;51.446;6.800;2023-05-07T06:55:08;17.00;99.40
14614;DHT22;7393;51.446;6.800;2023-05-07T06:57:37;17.00;1.00
14614;DHT22;7393;51.446;6.800;2023-05-07T07:00:05;17.00;99.90
14614;DHT22;7393;51.446;6.800;2023-05-07T07:02:36;17.10;1.00
14614;DHT22;7393;51.446;6.800;2023-05-07T07:05:03;17.10;99.90
14614;DHT22;7393;51.446;6.800;2023-05-07T07:07:30;17.20;1.00
14614;DHT22;7393;51.446;6.800;2023-05-07T07:09:56;17.20;1.00
14614;DHT22;7393;51.446;6.800;2023-05-07T07:12:23;17.30;1.00
14614;DHT22;7393;51.446;6.800;2023-05-07T07:14:51;17.30;99.90
14614;DHT22;7393;51.446;6.800;2023-05-07T07:17:18;17.40;1.00
14614;DHT22;7393;51.446;6.800;2023-05-07T07:19:46;17.50;99.90
14614;DHT22;7393;51.446;6.800;2023-05-07T07:22:13;17.50;51.70
14614;DHT22;7393;51.446;6.800;2023-05-07T07:24:39;17.60;99.90
14614;DHT22;7393;51.446;6.800;2023-05-07T07:27:06;17.70;99.90
14614;DHT22;7393;51.446;6.800;2023-05-07T07:29:33;17.70;1.00
14614;DHT22;7393;51.446;6.800;2023-05-07T07:32:00;17.70;1.00
14614;DHT22;7393;51.446;6.800;2023-05-07T07:34:26;17.80;1.00
14614;DHT22;7393;51.446;6.800;2023-05-07T07:36:55;17.90;99.90
14614;DHT22;7393;51.446;6.800;2023-05-07T07:39:21;18.00;1.00
14614;DHT22;7393;51.446;6.800;2023-05-07T07:41:48;18.00;1.00
14614;DHT22;7393;51.446;6.800;2023-05-07T07:44:15;18.10;1.00
14614;DHT22;7393;51.446;6.800;2023-05-07T07:46:42;18.30;99.90
14614;DHT22;7393;51.446;6.800;2023-05-07T07:49:09;18.30;1.00
14614;DHT22;7393;51.446;6.800;2023-05-07T07:51:36;18.40;1.00
14614;DHT22;7393;51.446;6.800;2023-05-07T07:54:04;18.40;3.20
14614;DHT22;7393;51.446;6.800;2023-05-07T07:56:32;18.40;1.00
14614;DHT22;7393;51.446;6.800;2023-05-07T07:58:59;18.50;1.00
14614;DHT22;7393;51.446;6.800;2023-05-07T08:01:25;18.60;1.00
14614;DHT22;7393;51.446;6.800;2023-05-07T08:03:52;18.80;1.00
14614;DHT22;7393;51.446;6.800;2023-05-07T08:06:19;18.90;99.90
14614;DHT22;7393;51.446;6.800;2023-05-07T08:08:46;19.10;1.00
14614;DHT22;7393;51.446;6.800;2023-05-07T08:11:14;19.20;1.00
14614;DHT22;7393;51.446;6.800;2023-05-07T08:13:41;19.30;1.00
14614;DHT22;7393;51.446;6.800;2023-05-07T08:16:08;19.40;1.00
14614;DHT22;7393;51.446;6.800;2023-05-07T08:18:35;19.50;1.00
14614;DHT22;7393;51.446;6.800;2023-05-07T08:21:01;19.50;1.00
14614;DHT22;7393;51.446;6.800;2023-05-07T08:23:28;19.60;1.00
14614;DHT22;7393;51.446;6.800;2023-05-07T08:25:55;19.60;1.00
14614;DHT22;7393;51.446;6.800;2023-05-07T08:28:24;19.70;1.00
14614;DHT22;7393;51.446;6.800;2023-05-07T08:30:51;19.70;1.00
14614;DHT22;7393;51.446;6.800;2023-05-07T08:33:17;19.70;1.00
14614;DHT22;7393;51.446;6.800;2023-05-07T08:35:44;19.70;1.00
14614;DHT22;7393;51.446;6.800;2023-05-07T08:38:11;19.80;1.00
14614;DHT22;7393;51.446;6.800;2023-05-07T08:40:39;19.80;1.00
14614;DHT22;7393;51.446;6.800;2023-05-07T08:43:06;19.90;99.90
14614;DHT22;7393;51.446;6.800;2023-05-07T08:45:35;19.90;99.90
14614;DHT22;7393;51.446;6.800;2023-05-07T08:48:03;20.00;99.90
14614;DHT22;7393;51.446;6.800;2023-05-07T08:50:31;20.10;99.90
14614;DHT22;7393;51.446;6.800;2023-05-07T08:53:02;20.20;99.90
14614;DHT22;7393;51.446;6.800;2023-05-07T08:55:29;20.40;99.90
14614;DHT22;7393;51.446;6.800;2023-05-07T08:57:56;20.50;99.90
14614;DHT22;7393;51.446;6.800;2023-05-07T09:00:23;20.70;99.90
14614;DHT22;7393;51.446;6.800;2023-05-07T09:02:52;20.80;99.90
14614;DHT22;7393;51.446;6.800;2023-05-07T09:05:18;20.90;99.90
14614;DHT22;7393;51.446;6.800;2023-05-07T09:07:45;20.90;99.90
14614;DHT22;7393;51.446;6.800;2023-05-07T09:10:13;21.00;99.90
14614;DHT22;7393;51.446;6.800;2023-05-07T09:12:40;21.00;99.90
14614;DHT22;7393;51.446;6.800;2023-05-07T09:15:08;21.10;99.90
14614;DHT22;7393;51.446;6.800;2023-05-07T09:17:34;21.20;99.90
14614;DHT22;7393;51.446;6.800;2023-05-07T09:20:07;21.30;99.90
14614;DHT22;7393;51.446;6.800;2023-05-07T09:22:35;21.50;99.90
14614;DHT22;7393;51.446;6.800;2023-05-07T09:25:03;21.60;99.90
14614;DHT22;7393;51.446;6.800;2023-05-07T09:27:30;21.80;99.90
14614;DHT22;7393;51.446;6.800;2023-05-07T09:29:57;21.90;99.90
14614;DHT22;7393;51.446;6.800;2023-05-07T09:32:25;21.90;99.90
14614;DHT22;7393;51.446;6.800;2023-05-07T09:34:52;22.00;99.90
14614;DHT22;7393;51.446;6.800;2023-05-07T09:37:21;22.20;99.90
14614;DHT22;7393;51.446;6.800;2023-05-07T09:39:49;22.30;98.80
14614;DHT22;7393;51.446;6.800;2023-05-07T09:42:23;22.50;99.90
14614;DHT22;7393;51.446;6.800;2023-05-07T09:44:50;22.60;98.80
14614;DHT22;7393;51.446;6.800;2023-05-07T09:47:19;22.80;95.00
14614;DHT22;7393;51.446;6.800;2023-05-07T09:49:48;22.90;48.30
14614;DHT22;7393;51.446;6.800;2023-05-07T09:52:17;23.00;31.50
14614;DHT22;7393;51.446;6.800;2023-05-07T09:54:47;23.00;23.20
14614;DHT22;7393;51.446;6.800;2023-05-07T09:57:15;23.00;29.00
14614;DHT22;7393;51.446;6.800;2023-05-07T09:59:44;23.00;18.60
14614;DHT22;7393;51.446;6.800;2023-05-07T10:02:13;23.00;19.90
14614;DHT22;7393;51.446;6.800;2023-05-07T10:04:41;23.10;5.20
14614;DHT22;7393;51.446;6.800;2023-05-07T10:07:08;23.20;1.00
14614;DHT22;7393;51.446;6.800;2023-05-07T10:09:36;23.20;1.00
14614;DHT22;7393;51.446;6.800;2023-05-07T10:12:05;23.30;1.00
14614;DHT22;7393;51.446;6.800;2023-05-07T10:14:33;23.40;1.00
14614;DHT22;7393;51.446;6.800;2023-05-07T10:17:00;23.60;1.00
14614;DHT22;7393;51.446;6.800;2023-05-07T10:19:29;23.60;1.00
14614;DHT22;7393;51.446;6.800;2023-05-07T10:22:01;23.60;1.00
14614;DHT22;7393;51.446;6.800;2023-05-07T10:24:32;23.60;1.00
14614;DHT22;7393;51.446;6.800;2023-05-07T10:27:01;23.60;1.00
14614;DHT22;7393;51.446;6.800;2023-05-07T10:29:35;23.70;1.00
14614;DHT22;7393;51.446;6.800;2023-05-07T10:32:33;23.70;1.00
14614;DHT22;7393;51.446;6.800;2023-05-07T10:35:04;23.70;1.00
14614;DHT22;7393;51.446;6.800;2023-05-07T10:37:33;23.80;1.00
14614;DHT22;7393;51.446;6.800;2023-05-07T10:40:00;23.80;1.00
14614;DHT22;7393;51.446;6.800;2023-05-07T10:42:27;23.80;1.00
14614;DHT22;7393;51.446;6.800;2023-05-07T10:44:56;23.80;1.00
14614;DHT22;7393;51.446;6.800;2023-05-07T10:47:23;23.70;1.00
14614;DHT22;7393;51.446;6.800;2023-05-07T10:50:20;23.70;1.00
14614;DHT22;7393;51.446;6.800;2023-05-07T10:53:20;23.80;1.00
14614;DHT22;7393;51.446;6.800;2023-05-07T10:55:49;23.70;1.00
14614;DHT22;7393;51.446;6.800;2023-05-07T10:58:26;23.80;1.00
14614;DHT22;7393;51.446;6.800;2023-05-07T11:00:57;23.80;1.00
14614;DHT22;7393;51.446;6.800;2023-05-07T11:03:25;23.90;1.00
14614;DHT22;7393;51.446;6.800;2023-05-07T11:06:10;23.90;1.00
14614;DHT22;7393;51.446;6.800;2023-05-07T11:08:53;23.90;1.00
14614;DHT22;7393;51.446;6.800;2023-05-07T11:11:44;23.80;1.00
14614;DHT22;7393;51.446;6.800;2023-05-07T11:14:11;23.80;1.00
14614;DHT22;7393;51.446;6.800;2023-05-07T11:16:41;23.90;1.00
14614;DHT22;7393;51.446;6.800;2023-05-07T11:19:08;24.00;1.00
14614;DHT22;7393;51.446;6.800;2023-05-07T11:21:36;24.00;1.00
14614;DHT22;7393;51.446;6.800;2023-05-07T11:24:04;24.00;1.00
14614;DHT22;7393;51.446;6.800;2023-05-07T11:26:41;23.90;1.00
14614;DHT22;7393;51.446;6.800;2023-05-07T11:29:11;23.90;1.00
14614;DHT22;7393;51.446;6.800;2023-05-07T11:31:39;23.70;1.00
14614;DHT22;7393;51.446;6.800;2023-05-07T11:34:06;23.60;1.00
14614;DHT22;7393;51.446;6.800;2023-05-07T11:36:34;23.60;1.00
14614;DHT22;7393;51.446;6.800;2023-05-07T11:39:01;23.60;1.00
14614;DHT22;7393;51.446;6.800;2023-05-07T11:41:37;23.60;1.00
14614;DHT22;7393;51.446;6.800;2023-05-07T11:44:04;23.60;1.00
14614;DHT22;7393;51.446;6.800;2023-05-07T11:46:30;23.60;1.00
14614;DHT22;7393;51.446;6.800;2023-05-07T11:49:00;23.60;1.00
14614;DHT22;7393;51.446;6.800;2023-05-07T11:51:27;23.60;1.00
14614;DHT22;7393;51.446;6.800;2023-05-07T11:53:54;23.60;1.00
14614;DHT22;7393;51.446;6.800;2023-05-07T11:56:21;23.60;1.00
14614;DHT22;7393;51.446;6.800;2023-05-07T11:58:48;23.70;1.00
14614;DHT22;7393;51.446;6.800;2023-05-07T12:01:17;23.60;1.00
14614;DHT22;7393;51.446;6.800;2023-05-07T12:03:44;23.60;1.00
14614;DHT22;7393;51.446;6.800;2023-05-07T12:06:14;23.60;1.00
14614;DHT22;7393;51.446;6.800;2023-05-07T12:08:42;23.60;1.00
14614;DHT22;7393;51.446;6.800;2023-05-07T12:11:13;23.60;1.00
14614;DHT22;7393;51.446;6.800;2023-05-07T12:13:41;23.60;1.00
14614;DHT22;7393;51.446;6.800;2023-05-07T12:16:09;23.70;1.00
14614;DHT22;7393;51.446;6.800;2023-05-07T12:18:37;23.60;1.00
14614;DHT22;7393;51.446;6.800;2023-05-07T12:21:05;23.60;1.00
14614;DHT22;7393;51.446;6.800;2023-05-07T12:23:35;23.60;1.00
14614;DHT22;7393;51.446;6.800;2023-05-07T12:26:03;23.60;1.00
14614;DHT22;7393;51.446;6.800;2023-05-07T12:28:31;23.60;1.00
14614;DHT22;7393;51.446;6.800;2023-05-07T12:31:02;23.60;1.00
14614;DHT22;7393;51.446;6.800;2023-05-07T12:33:29;23.60;1.00
14614;DHT22;7393;51.446;6.800;2023-05-07T12:35:57;23.60;1.00
14614;DHT22;7393;51.446;6.800;2023-05-07T12:38:23;23.50;1.00
14614;DHT22;7393;51.446;6.800;2023-05-07T12:40:54;23.50;1.00
14614;DHT22;7393;51.446;6.800;2023-05-07T12:43:23;23.40;1.00
14614;DHT22;7393;51.446;6.800;2023-05-07T12:45:51;23.40;1.00
14614;DHT22;7393;51.446;6.800;2023-05-07T12:48:20;23.30;1.00
14614;DHT22;7393;51.446;6.800;2023-05-07T12:50:49;23.20;1.00
14614;DHT22;7393;51.446;6.800;2023-05-07T12:53:16;23.10;1.00
14614;DHT22;7393;51.446;6.800;2023-05-07T12:55:44;23.10;1.00
14614;DHT22;7393;51.446;6.800;2023-05-07T12:58:16;22.90;1.00
14614;DHT22;7393;51.446;6.800;2023-05-07T13:00:44;22.80;1.00
14614;DHT22;7393;51.446;6.800;2023-05-07T13:03:11;22.80;1.00
14614;DHT22;7393;51.446;6.800;2023-05-07T13:05:38;22.90;1.00
14614;DHT22;7393;51.446;6.800;2023-05-07T13:08:05;22.90;1.00
14614;DHT22;7393;51.446;6.800;2023-05-07T13:10:34;22.80;1.00
14614;DHT22;7393;51.446;6.800;2023-05-07T13:13:01;22.80;1.00
14614;DHT22;7393;51.446;6.800;2023-05-07T13:15:30;22.70;1.00
14614;DHT22;7393;51.446;6.800;2023-05-07T13:17:57;22.70;1.00
14614;DHT22;7393;51.446;6.800;2023-05-07T13:20:24;22.60;1.00
14614;DHT22;7393;51.446;6.800;2023-05-07T13:22:50;22.60;1.00
14614;DHT22;7393;51.446;6.800;2023-05-07T13:25:17;22.70;1.00
14614;DHT22;7393;51.446;6.800;2023-05-07T13:27:44;22.60;1.00
14614;DHT22;7393;51.446;6.800;2023-05-07T13:30:11;22.60;1.00
14614;DHT22;7393;51.446;6.800;2023-05-07T13:32:39;22.60;1.00
14614;DHT22;7393;51.446;6.800;2023-05-07T13:35:07;22.50;1.00
14614;DHT22;7393;51.446;6.800;2023-05-07T13:37:34;22.40;1.00
14614;DHT22;7393;51.446;6.800;2023-05-07T13:40:01;22.30;1.00
14614;DHT22;7393;51.446;6.800;2023-05-07T13:42:28;22.20;1.00
14614;DHT22;7393;51.446;6.800;2023-05-07T13:44:56;22.10;1.00
14614;DHT22;7393;51.446;6.800;2023-05-07T13:47:23;22.10;1.00
14614;DHT22;7393;51.446;6.800;2023-05-07T13:49:51;22.00;1.00
14614;DHT22;7393;51.446;6.800;2023-05-07T13:52:18;21.80;1.00
14614;DHT22;7393;51.446;6.800;2023-05-07T13:54:45;21.70;1.00
14614;DHT22;7393;51.446;6.800;2023-05-07T13:57:12;21.60;1.00
14614;DHT22;7393;51.446;6.800;2023-05-07T13:59:39;21.50;1.00
14614;DHT22;7393;51.446;6.800;2023-05-07T14:02:06;21.50;1.00
14614;DHT22;7393;51.446;6.800;2023-05-07T14:04:33;21.40;1.00
14614;DHT22;7393;51.446;6.800;2023-05-07T14:07:01;21.40;1.00
14614;DHT22;7393;51.446;6.800;2023-05-07T14:09:28;21.40;1.00
14614;DHT22;7393;51.446;6.800;2023-05-07T14:11:55;21.30;1.00
14614;DHT22;7393;51.446;6.800;2023-05-07T14:14:21;21.30;1.00
14614;DHT22;7393;51.446;6.800;2023-05-07T14:16:48;21.30;1.00
14614;DHT22;7393;51.446;6.800;2023-05-07T14:19:15;21.30;1.00
14614;DHT22;7393;51.446;6.800;2023-05-07T14:21:42;21.20;7.40
14614;DHT22;7393;51.446;6.800;2023-05-07T14:24:10;21.20;14.20
14614;DHT22;7393;51.446;6.800;2023-05-07T14:26:37;21.20;22.20
14614;DHT22;7393;51.446;6.800;2023-05-07T14:29:03;21.20;28.60
14614;DHT22;7393;51.446;6.800;2023-05-07T14:31:30;21.20;38.70
14614;DHT22;7393;51.446;6.800;2023-05-07T14:33:58;21.10;58.20
14614;DHT22;7393;51.446;6.800;2023-05-07T14:36:25;21.10;99.90
14614;DHT22;7393;51.446;6.800;2023-05-07T14:38:52;21.10;99.90
14614;DHT22;7393;51.446;6.800;2023-05-07T14:41:22;21.00;99.90
14614;DHT22;7393;51.446;6.800;2023-05-07T14:43:49;21.00;99.90
14614;DHT22;7393;51.446;6.800;2023-05-07T14:46:16;21.00;99.90
14614;DHT22;7393;51.446;6.800;2023-05-07T14:48:44;20.90;99.90
14614;DHT22;7393;51.446;6.800;2023-05-07T14:51:11;20.90;99.90
14614;DHT22;7393;51.446;6.800;2023-05-07T14:53:39;20.90;99.90
14614;DHT22;7393;51.446;6.800;2023-05-07T14:56:05;20.80;1.00
14614;DHT22;7393;51.446;6.800;2023-05-07T14:58:34;20.80;1.00
14614;DHT22;7393;51.446;6.800;2023-05-07T15:01:01;20.70;1.00
14614;DHT22;7393;51.446;6.800;2023-05-07T15:03:27;20.60;1.00
14614;DHT22;7393;51.446;6.800;2023-05-07T15:05:54;20.60;92.70
14614;DHT22;7393;51.446;6.800;2023-05-07T15:08:21;20.60;99.90
14614;DHT22;7393;51.446;6.800;2023-05-07T15:10:48;20.60;1.00
14614;DHT22;7393;51.446;6.800;2023-05-07T15:13:15;20.50;1.00
14614;DHT22;7393;51.446;6.800;2023-05-07T15:15:44;20.50;99.90
14614;DHT22;7393;51.446;6.800;2023-05-07T15:18:11;20.40;99.90
14614;DHT22;7393;51.446;6.800;2023-05-07T15:20:38;20.40;1.00
14614;DHT22;7393;51.446;6.800;2023-05-07T15:23:06;20.30;7.00
14614;DHT22;7393;51.446;6.800;2023-05-07T15:25:35;20.30;99.90
14614;DHT22;7393;51.446;6.800;2023-05-07T15:28:02;20.30;1.00
14614;DHT22;7393;51.446;6.800;2023-05-07T15:30:29;20.20;1.00
14614;DHT22;7393;51.446;6.800;2023-05-07T15:32:57;20.20;1.00
14614;DHT22;7393;51.446;6.800;2023-05-07T15:35:24;20.10;99.90
14614;DHT22;7393;51.446;6.800;2023-05-07T15:37:51;20.00;1.00
14614;DHT22;7393;51.446;6.800;2023-05-07T15:40:18;20.00;1.00
14614;DHT22;7393;51.446;6.800;2023-05-07T15:42:45;20.00;99.90
14614;DHT22;7393;51.446;6.800;2023-05-07T15:45:12;20.00;99.90
14614;DHT22;7393;51.446;6.800;2023-05-07T15:47:39;20.00;99.90
14614;DHT22;7393;51.446;6.800;2023-05-07T15:50:08;19.90;1.00
14614;DHT22;7393;51.446;6.800;2023-05-07T15:52:35;20.00;44.20
14614;DHT22;7393;51.446;6.800;2023-05-07T15:55:04;20.00;1.00
14614;DHT22;7393;51.446;6.800;2023-05-07T15:57:31;20.00;1.00
14614;DHT22;7393;51.446;6.800;2023-05-07T15:59:58;20.00;18.80